createdAt,value
2017-05-11T00:00:32.780Z,11.01
2017-05-11T00:01:34.150Z,11.02
2017-05-11T00:02:35.516Z,11.17
2017-05-11T00:03:36.877Z,11.02
2017-05-11T00:04:38.271Z,11.10
2017-05-11T00:05:39.644Z,11.09
2017-05-11T00:06:41.004Z,11.10
2017-05-11T00:07:42.370Z,11.07
2017-05-11T00:08:43.731Z,11.03
2017-05-11T00:09:45.087Z,11.13
2017-05-11T00:10:46.450Z,10.95
2017-05-11T00:11:47.812Z,10.98
2017-05-11T00:12:49.180Z,11.01
2017-05-11T00:13:50.564Z,11.02
2017-05-11T00:14:51.924Z,11.11
2017-05-11T00:15:53.289Z,11.01
2017-05-11T00:16:54.648Z,10.98
2017-05-11T00:17:56.013Z,10.92
2017-05-11T00:18:57.373Z,10.94
2017-05-11T00:19:58.764Z,10.95
2017-05-11T00:21:00.199Z,10.94
2017-05-11T00:22:01.675Z,10.91
2017-05-11T00:23:03.109Z,10.92
2017-05-11T00:24:04.592Z,10.88
2017-05-11T00:25:06.014Z,10.89
2017-05-11T00:26:07.524Z,10.94
2017-05-11T00:27:09.021Z,10.95
2017-05-11T00:28:10.522Z,10.92
2017-05-11T00:29:11.965Z,10.88
2017-05-11T00:30:13.489Z,10.86
2017-05-11T00:31:14.854Z,10.86
2017-05-11T00:32:16.211Z,10.77
2017-05-11T00:33:17.609Z,10.80
2017-05-11T00:34:18.975Z,10.78
2017-05-11T00:35:20.359Z,10.81
2017-05-11T00:36:21.719Z,10.74
2017-05-11T00:37:23.082Z,10.74
2017-05-11T00:38:24.436Z,10.78
2017-05-11T00:39:25.880Z,10.76
2017-05-11T00:40:27.238Z,10.73
2017-05-11T00:41:28.614Z,10.73
2017-05-11T00:42:29.972Z,10.74
2017-05-11T00:43:31.339Z,10.76
2017-05-11T00:44:32.704Z,10.73
2017-05-11T00:45:34.060Z,10.76
2017-05-11T00:46:35.419Z,10.60
2017-05-11T00:47:36.790Z,10.63
2017-05-11T00:48:38.156Z,10.60
2017-05-11T00:49:39.531Z,10.63
2017-05-11T00:50:40.904Z,10.62
2017-05-11T00:51:42.296Z,10.53
2017-05-11T00:52:43.653Z,10.63
2017-05-11T00:53:45.017Z,10.63
2017-05-11T00:54:46.372Z,10.56
2017-05-11T00:55:47.754Z,10.56
2017-05-11T00:56:49.123Z,10.52
2017-05-11T00:57:50.475Z,10.53
2017-05-11T00:58:51.836Z,10.53
2017-05-11T00:59:53.200Z,10.47
2017-05-11T01:00:54.568Z,10.56
2017-05-11T01:01:55.936Z,10.55
2017-05-11T01:02:57.304Z,10.47
2017-05-11T01:03:58.667Z,10.47
2017-05-11T01:05:00.027Z,10.44
2017-05-11T01:06:01.391Z,10.25
2017-05-11T01:07:02.747Z,10.28
2017-05-11T01:08:04.105Z,10.34
2017-05-11T01:09:05.471Z,10.26
2017-05-11T01:10:06.836Z,10.17
2017-05-11T01:11:08.203Z,10.21
2017-05-11T01:12:09.577Z,10.32
2017-05-11T01:13:10.963Z,10.26
2017-05-11T01:14:12.325Z,10.26
2017-05-11T01:15:13.685Z,10.25
2017-05-11T01:16:15.048Z,10.28
2017-05-11T01:17:16.407Z,10.28
2017-05-11T01:18:17.820Z,10.18
2017-05-11T01:19:19.619Z,10.22
2017-05-11T01:20:20.982Z,10.24
2017-05-11T01:21:22.417Z,10.14
2017-05-11T01:22:23.813Z,10.14
2017-05-11T01:23:25.177Z,10.17
2017-05-11T01:24:26.539Z,10.06
2017-05-11T01:25:27.905Z,9.88
2017-05-11T01:26:29.263Z,10.04
2017-05-11T01:27:30.626Z,10.06
2017-05-11T01:28:31.985Z,10.01
2017-05-11T01:29:33.390Z,10.07
2017-05-11T01:30:35.565Z,9.85
2017-05-11T01:31:36.987Z,9.58
2017-05-11T01:32:38.398Z,9.53
2017-05-11T01:33:39.897Z,9.60
2017-05-11T01:34:42.237Z,9.58
2017-05-11T01:35:43.652Z,9.71
2017-05-11T01:36:45.015Z,9.76
2017-05-11T01:37:46.379Z,9.68
2017-05-11T01:38:47.736Z,9.73
2017-05-11T01:39:49.095Z,9.75
2017-05-11T01:40:50.450Z,9.76
2017-05-11T01:41:51.812Z,9.83
2017-05-11T01:42:53.175Z,9.57
2017-05-11T01:43:54.536Z,9.70
2017-05-11T01:44:55.890Z,9.58
2017-05-11T01:45:57.253Z,9.61
2017-05-11T01:46:58.617Z,9.56
2017-05-11T01:47:59.986Z,9.60
2017-05-11T01:49:01.335Z,9.50
2017-05-11T01:50:02.701Z,9.53
2017-05-11T01:51:04.073Z,9.52
2017-05-11T01:52:05.419Z,9.53
2017-05-11T01:53:06.816Z,9.42
2017-05-11T01:54:08.174Z,9.58
2017-05-11T01:55:09.530Z,9.52
2017-05-11T01:56:10.890Z,9.38
2017-05-11T01:57:12.313Z,9.45
2017-05-11T01:58:13.676Z,9.38
2017-05-11T01:59:15.050Z,9.45
2017-05-11T02:00:16.405Z,9.39
2017-05-11T02:01:17.763Z,9.25
2017-05-11T02:02:19.130Z,9.25
2017-05-11T02:03:20.529Z,8.99
2017-05-11T02:04:21.888Z,9.09
2017-05-11T02:05:23.249Z,8.91
2017-05-11T02:06:24.658Z,9.09
2017-05-11T02:07:26.018Z,9.27
2017-05-11T02:08:27.375Z,9.27
2017-05-11T02:09:28.727Z,9.24
2017-05-11T02:10:30.098Z,9.23
2017-05-11T02:11:31.453Z,9.25
2017-05-11T02:12:32.813Z,9.38
2017-05-11T02:13:34.179Z,9.27
2017-05-11T02:14:35.545Z,9.21
2017-05-11T02:15:36.902Z,9.09
2017-05-11T02:16:38.263Z,9.20
2017-05-11T02:17:39.618Z,9.10
2017-05-11T02:18:41.047Z,9.20
2017-05-11T02:19:42.392Z,9.13
2017-05-11T02:20:43.755Z,9.04
2017-05-11T02:21:45.125Z,9.06
2017-05-11T02:22:46.489Z,9.15
2017-05-11T02:23:47.854Z,9.05
2017-05-11T02:24:49.208Z,9.12
2017-05-11T02:25:50.573Z,9.12
2017-05-11T02:26:51.946Z,9.06
2017-05-11T02:27:53.323Z,9.05
2017-05-11T02:28:54.741Z,9.10
2017-05-11T02:29:56.100Z,9.18
2017-05-11T02:30:57.456Z,9.18
2017-05-11T02:31:58.833Z,9.13
2017-05-11T02:33:00.190Z,9.09
2017-05-11T02:34:01.561Z,8.97
2017-05-11T02:35:02.923Z,9.10
2017-05-11T02:36:04.296Z,9.09
2017-05-11T02:37:05.678Z,9.04
2017-05-11T02:38:07.038Z,9.12
2017-05-11T02:39:08.404Z,9.06
2017-05-11T02:40:09.753Z,9.05
2017-05-11T02:41:11.107Z,9.12
2017-05-11T02:42:12.486Z,9.12
2017-05-11T02:43:13.858Z,9.02
2017-05-11T02:44:15.236Z,9.13
2017-05-11T02:45:16.599Z,9.15
2017-05-11T02:46:18.041Z,9.05
2017-05-11T02:47:19.419Z,9.04
2017-05-11T02:48:20.774Z,9.05
2017-05-11T02:49:22.147Z,9.05
2017-05-11T02:50:23.500Z,9.06
2017-05-11T02:51:24.862Z,8.99
2017-05-11T02:52:26.283Z,9.02
2017-05-11T02:53:27.635Z,9.02
2017-05-11T02:54:28.998Z,8.90
2017-05-11T02:55:30.367Z,8.75
2017-05-11T02:56:31.726Z,8.78
2017-05-11T02:57:33.115Z,8.83
2017-05-11T02:58:34.476Z,8.76
2017-05-11T02:59:35.837Z,8.78
2017-05-11T03:00:37.201Z,8.93
2017-05-11T03:01:38.558Z,8.81
2017-05-11T03:02:39.919Z,8.83
2017-05-11T03:03:41.276Z,8.78
2017-05-11T03:04:42.640Z,8.71
2017-05-11T03:05:43.997Z,8.68
2017-05-11T03:06:45.363Z,8.73
2017-05-11T03:07:46.725Z,8.79
2017-05-11T03:08:48.086Z,8.73
2017-05-11T03:09:49.444Z,8.79
2017-05-11T03:10:50.805Z,8.81
2017-05-11T03:11:52.161Z,8.79
2017-05-11T03:12:53.533Z,8.65
2017-05-11T03:13:54.975Z,8.75
2017-05-11T03:14:56.346Z,8.65
2017-05-11T03:15:57.726Z,8.63
2017-05-11T03:16:59.117Z,8.39
2017-05-11T03:18:00.486Z,8.30
2017-05-11T03:19:01.846Z,8.47
2017-05-11T03:20:03.303Z,8.57
2017-05-11T03:21:04.673Z,8.54
2017-05-11T03:22:06.042Z,8.40
2017-05-11T03:23:07.398Z,8.53
2017-05-11T03:24:08.767Z,8.57
2017-05-11T03:25:10.129Z,8.62
2017-05-11T03:26:11.504Z,8.65
2017-05-11T03:27:12.874Z,8.66
2017-05-11T03:28:14.245Z,8.63
2017-05-11T03:29:15.612Z,8.58
2017-05-11T03:30:17.019Z,8.57
2017-05-11T03:31:18.379Z,8.57
2017-05-11T03:32:19.741Z,8.51
2017-05-11T03:33:21.119Z,8.44
2017-05-11T03:34:22.482Z,8.47
2017-05-11T03:35:23.876Z,8.54
2017-05-11T03:36:25.235Z,8.57
2017-05-11T03:37:26.599Z,8.55
2017-05-11T03:38:27.951Z,8.55
2017-05-11T03:39:29.313Z,8.60
2017-05-11T03:40:30.678Z,8.63
2017-05-11T03:41:32.059Z,8.53
2017-05-11T03:42:33.417Z,8.51
2017-05-11T03:43:34.778Z,8.57
2017-05-11T03:44:36.643Z,8.60
2017-05-11T03:45:38.001Z,8.57
2017-05-11T03:46:39.364Z,8.55
2017-05-11T03:47:40.735Z,8.53
2017-05-11T03:48:42.102Z,8.68
2017-05-11T03:49:43.480Z,8.57
2017-05-11T03:50:44.849Z,8.55
2017-05-11T03:51:46.206Z,8.54
2017-05-11T03:52:47.571Z,8.68
2017-05-11T03:53:48.940Z,8.66
2017-05-11T03:54:50.305Z,8.58
2017-05-11T03:55:51.662Z,8.44
2017-05-11T03:56:53.024Z,8.37
2017-05-11T03:57:54.396Z,8.58
2017-05-11T03:58:55.761Z,8.57
2017-05-11T03:59:57.134Z,8.62
2017-05-11T04:00:58.502Z,8.50
2017-05-11T04:01:59.872Z,8.55
2017-05-11T04:03:01.243Z,8.50
2017-05-11T04:04:02.608Z,8.51
2017-05-11T04:05:04.033Z,8.55
2017-05-11T04:06:05.405Z,8.62
2017-05-11T04:07:06.801Z,8.66
2017-05-11T04:08:08.132Z,8.44
2017-05-11T04:09:09.495Z,8.57
2017-05-11T04:10:10.857Z,8.54
2017-05-11T04:11:12.215Z,8.45
2017-05-11T04:12:13.584Z,8.44
2017-05-11T04:13:14.955Z,8.54
2017-05-11T04:14:16.343Z,8.50
2017-05-11T04:15:17.700Z,8.60
2017-05-11T04:16:19.069Z,8.69
2017-05-11T04:17:20.431Z,8.66
2017-05-11T04:18:21.796Z,8.68
2017-05-11T04:19:23.151Z,8.68
2017-05-11T04:20:24.521Z,8.72
2017-05-11T04:21:25.895Z,8.84
2017-05-11T04:22:27.264Z,8.94
2017-05-11T04:23:28.692Z,9.01
2017-05-11T04:24:30.066Z,8.97
2017-05-11T04:25:31.433Z,8.88
2017-05-11T04:26:32.798Z,8.87
2017-05-11T04:27:34.169Z,8.83
2017-05-11T04:28:35.554Z,8.83
2017-05-11T04:29:36.917Z,8.79
2017-05-11T04:30:38.284Z,8.81
2017-05-11T04:31:40.409Z,8.72
2017-05-11T04:32:41.775Z,8.79
2017-05-11T04:33:43.147Z,8.73
2017-05-11T04:34:44.508Z,8.73
2017-05-11T04:35:45.871Z,8.79
2017-05-11T04:36:47.236Z,8.86
2017-05-11T04:37:48.601Z,8.90
2017-05-11T04:38:49.973Z,9.02
2017-05-11T04:39:51.333Z,8.94
2017-05-11T04:40:52.696Z,8.90
2017-05-11T04:41:54.080Z,8.94
2017-05-11T04:42:55.456Z,8.90
2017-05-11T04:43:56.823Z,8.76
2017-05-11T04:44:58.203Z,8.90
2017-05-11T04:45:59.572Z,8.90
2017-05-11T04:47:00.924Z,9.01
2017-05-11T04:48:02.283Z,9.10
2017-05-11T04:49:03.653Z,8.91
2017-05-11T04:50:05.017Z,8.96
2017-05-11T04:51:06.376Z,9.10
2017-05-11T04:52:07.742Z,9.13
2017-05-11T04:53:09.107Z,9.12
2017-05-11T04:54:10.477Z,9.06
2017-05-11T04:55:11.844Z,9.13
2017-05-11T04:56:13.205Z,9.15
2017-05-11T04:57:14.562Z,9.13
2017-05-11T04:58:15.934Z,9.09
2017-05-11T04:59:17.295Z,9.16
2017-05-11T05:00:18.671Z,9.12
2017-05-11T05:01:20.036Z,9.18
2017-05-11T05:02:21.394Z,9.23
2017-05-11T05:03:22.759Z,9.30
2017-05-11T05:04:24.182Z,9.25
2017-05-11T05:05:25.544Z,9.25
2017-05-11T05:06:26.913Z,9.39
2017-05-11T05:07:28.279Z,9.35
2017-05-11T05:08:29.642Z,9.42
2017-05-11T05:09:31.005Z,9.39
2017-05-11T05:10:32.378Z,9.46
2017-05-11T05:11:33.809Z,9.43
2017-05-11T05:12:35.175Z,9.46
2017-05-11T05:13:36.553Z,9.42
2017-05-11T05:14:37.918Z,9.52
2017-05-11T05:15:39.291Z,9.46
2017-05-11T05:16:40.651Z,9.49
2017-05-11T05:17:42.038Z,9.45
2017-05-11T05:18:43.403Z,9.48
2017-05-11T05:19:44.766Z,9.48
2017-05-11T05:20:46.175Z,9.57
2017-05-11T05:21:47.509Z,9.53
2017-05-11T05:22:48.878Z,9.46
2017-05-11T05:23:50.253Z,9.60
2017-05-11T05:24:51.623Z,9.64
2017-05-11T05:25:52.978Z,9.57
2017-05-11T05:26:54.364Z,9.58
2017-05-11T05:27:55.755Z,9.58
2017-05-11T05:28:57.123Z,9.58
2017-05-11T05:29:58.485Z,9.61
2017-05-11T05:30:59.865Z,9.60
2017-05-11T05:32:01.244Z,9.57
2017-05-11T05:33:02.622Z,9.66
2017-05-11T05:34:03.999Z,9.64
2017-05-11T05:35:05.366Z,9.75
2017-05-11T05:36:07.392Z,9.66
2017-05-11T05:37:08.750Z,9.76
2017-05-11T05:38:10.127Z,9.81
2017-05-11T05:39:11.506Z,9.82
2017-05-11T05:40:12.920Z,9.71
2017-05-11T05:41:14.307Z,9.86
2017-05-11T05:42:15.682Z,9.88
2017-05-11T05:43:17.627Z,9.94
2017-05-11T05:44:18.980Z,9.91
2017-05-11T05:45:20.345Z,9.99
2017-05-11T05:46:21.753Z,9.96
2017-05-11T05:47:23.100Z,10.09
2017-05-11T05:48:24.485Z,10.12
2017-05-11T05:49:25.855Z,10.07
2017-05-11T05:50:27.227Z,10.17
2017-05-11T05:51:28.608Z,10.19
2017-05-11T05:52:29.979Z,10.24
2017-05-11T05:53:31.359Z,10.28
2017-05-11T05:54:32.728Z,10.34
2017-05-11T05:55:34.093Z,10.39
2017-05-11T05:56:35.457Z,10.44
2017-05-11T05:57:36.827Z,10.52
2017-05-11T05:58:38.248Z,10.42
2017-05-11T05:59:39.686Z,10.43
2017-05-11T06:00:41.194Z,10.56
2017-05-11T06:01:42.565Z,10.59
2017-05-11T06:02:43.962Z,10.55
2017-05-11T06:03:45.341Z,10.55
2017-05-11T06:04:47.504Z,10.59
2017-05-11T06:05:48.878Z,10.55
2017-05-11T06:06:50.261Z,10.60
2017-05-11T06:07:51.632Z,10.70
2017-05-11T06:08:53.020Z,10.65
2017-05-11T06:09:54.376Z,10.65
2017-05-11T06:10:55.742Z,10.76
2017-05-11T06:11:57.113Z,10.80
2017-05-11T06:12:58.524Z,10.80
2017-05-11T06:13:59.928Z,10.71
2017-05-11T06:15:01.327Z,10.77
2017-05-11T06:16:02.706Z,10.71
2017-05-11T06:17:04.083Z,10.74
2017-05-11T06:18:05.455Z,10.78
2017-05-11T06:19:06.816Z,10.65
2017-05-11T06:20:08.192Z,10.78
2017-05-11T06:21:09.555Z,10.77
2017-05-11T06:22:10.936Z,10.77
2017-05-11T06:23:12.360Z,10.84
2017-05-11T06:24:13.710Z,10.95
2017-05-11T06:25:15.083Z,11.10
2017-05-11T06:26:16.492Z,10.99
2017-05-11T06:27:17.853Z,11.02
2017-05-11T06:28:19.258Z,11.06
2017-05-11T06:29:20.643Z,11.16
2017-05-11T06:30:22.262Z,11.17
2017-05-11T06:31:23.774Z,11.17
2017-05-11T06:32:25.150Z,11.21
2017-05-11T06:33:26.525Z,11.38
2017-05-11T06:34:27.903Z,11.34
2017-05-11T06:35:29.269Z,11.46
2017-05-11T06:36:30.637Z,11.44
2017-05-11T06:37:32.015Z,11.46
2017-05-11T06:38:33.384Z,11.43
2017-05-11T06:39:34.754Z,11.36
2017-05-11T06:40:36.115Z,11.29
2017-05-11T06:41:37.535Z,11.36
2017-05-11T06:42:38.920Z,11.29
2017-05-11T06:43:40.292Z,11.49
2017-05-11T06:44:41.657Z,11.44
2017-05-11T06:45:43.028Z,11.47
2017-05-11T06:46:44.482Z,11.57
2017-05-11T06:47:45.873Z,11.67
2017-05-11T06:48:47.296Z,11.72
2017-05-11T06:49:48.718Z,11.62
2017-05-11T06:50:50.085Z,11.59
2017-05-11T06:51:51.448Z,11.61
2017-05-11T06:52:52.815Z,11.68
2017-05-11T06:53:54.187Z,11.75
2017-05-11T06:54:55.591Z,11.71
2017-05-11T06:55:56.924Z,11.70
2017-05-11T06:56:58.287Z,11.87
2017-05-11T06:57:59.658Z,11.83
2017-05-11T06:59:01.025Z,11.94
2017-05-11T07:00:02.394Z,11.97
2017-05-11T07:01:03.809Z,11.99
2017-05-11T07:02:05.178Z,12.02
2017-05-11T07:03:06.544Z,12.02
2017-05-11T07:04:07.909Z,11.94
2017-05-11T07:05:09.275Z,11.97
2017-05-11T07:06:10.651Z,12.06
2017-05-11T07:07:12.029Z,12.01
2017-05-11T07:08:13.399Z,11.97
2017-05-11T07:09:14.760Z,11.93
2017-05-11T07:10:16.135Z,12.06
2017-05-11T07:11:18.278Z,12.09
2017-05-11T07:12:19.646Z,12.21
2017-05-11T07:13:21.528Z,12.23
2017-05-11T07:14:22.915Z,12.26
2017-05-11T07:15:24.287Z,12.24
2017-05-11T07:16:25.654Z,12.30
2017-05-11T07:17:27.027Z,12.27
2017-05-11T07:18:28.405Z,12.27
2017-05-11T07:19:29.766Z,12.09
2017-05-11T07:20:31.127Z,12.33
2017-05-11T07:21:32.494Z,12.37
2017-05-11T07:22:33.860Z,12.23
2017-05-11T07:23:35.237Z,12.21
2017-05-11T07:24:36.606Z,12.38
2017-05-11T07:25:37.969Z,12.31
2017-05-11T07:26:39.338Z,12.41
2017-05-11T07:27:40.709Z,12.51
2017-05-11T07:28:42.068Z,12.45
2017-05-11T07:29:43.479Z,12.51
2017-05-11T07:30:44.842Z,12.46
2017-05-11T07:31:46.221Z,12.64
2017-05-11T07:32:47.574Z,12.70
2017-05-11T07:33:48.948Z,12.75
2017-05-11T07:34:50.320Z,12.84
2017-05-11T07:35:51.695Z,12.84
2017-05-11T07:36:53.133Z,12.84
2017-05-11T07:37:54.517Z,12.75
2017-05-11T07:38:55.896Z,12.64
2017-05-11T07:39:57.271Z,12.75
2017-05-11T07:40:58.630Z,12.77
2017-05-11T07:42:00.024Z,12.89
2017-05-11T07:43:01.396Z,12.89
2017-05-11T07:44:02.780Z,12.89
2017-05-11T07:45:04.165Z,12.88
2017-05-11T07:46:05.514Z,12.93
2017-05-11T07:47:06.906Z,12.99
2017-05-11T07:48:08.272Z,13.04
2017-05-11T07:49:09.630Z,13.00
2017-05-11T07:50:11.015Z,13.14
2017-05-11T07:51:12.388Z,13.21
2017-05-11T07:52:13.771Z,13.15
2017-05-11T07:53:15.163Z,13.18
2017-05-11T07:54:16.522Z,13.21
2017-05-11T07:55:17.894Z,13.12
2017-05-11T07:56:19.273Z,13.22
2017-05-11T07:57:20.635Z,13.40
2017-05-11T07:58:22.009Z,13.20
2017-05-11T07:59:23.390Z,13.21
2017-05-11T08:00:24.755Z,13.32
2017-05-11T08:01:26.132Z,13.33
2017-05-11T08:02:27.515Z,13.33
2017-05-11T08:03:28.902Z,13.36
2017-05-11T08:04:30.279Z,13.12
2017-05-11T08:05:31.645Z,13.21
2017-05-11T08:06:33.022Z,13.32
2017-05-11T08:07:34.403Z,13.46
2017-05-11T08:08:35.780Z,13.46
2017-05-11T08:09:37.152Z,13.58
2017-05-11T08:10:38.523Z,13.58
2017-05-11T08:11:39.893Z,13.55
2017-05-11T08:12:41.273Z,13.51
2017-05-11T08:13:42.642Z,13.55
2017-05-11T08:14:44.009Z,13.76
2017-05-11T08:15:45.379Z,13.80
2017-05-11T08:16:46.740Z,13.99
2017-05-11T08:17:48.117Z,13.99
2017-05-11T08:18:49.483Z,14.06
2017-05-11T08:19:50.855Z,13.99
2017-05-11T08:20:52.226Z,13.99
2017-05-11T08:21:53.597Z,13.99
2017-05-11T08:22:55.028Z,13.96
2017-05-11T08:23:56.393Z,14.17
2017-05-11T08:24:57.761Z,14.19
2017-05-11T08:25:59.130Z,14.28
2017-05-11T08:27:00.499Z,14.24
2017-05-11T08:28:01.873Z,14.39
2017-05-11T08:29:03.233Z,14.34
2017-05-11T08:30:04.615Z,14.27
2017-05-11T08:31:05.977Z,14.34
2017-05-11T08:32:07.347Z,14.39
2017-05-11T08:33:08.724Z,14.34
2017-05-11T08:34:10.105Z,14.43
2017-05-11T08:35:11.471Z,14.47
2017-05-11T08:36:12.848Z,14.46
2017-05-11T08:37:14.215Z,14.53
2017-05-11T08:38:15.591Z,14.56
2017-05-11T08:39:16.966Z,14.71
2017-05-11T08:40:18.326Z,14.67
2017-05-11T08:41:19.701Z,14.68
2017-05-11T08:42:21.096Z,14.75
2017-05-11T08:43:22.451Z,14.69
2017-05-11T08:44:23.835Z,14.80
2017-05-11T08:45:25.199Z,14.87
2017-05-11T08:46:26.572Z,14.81
2017-05-11T08:47:27.996Z,14.98
2017-05-11T08:48:29.375Z,15.01
2017-05-11T08:49:30.746Z,15.08
2017-05-11T08:50:32.121Z,15.13
2017-05-11T08:51:33.488Z,15.09
2017-05-11T08:52:34.918Z,15.12
2017-05-11T08:53:36.250Z,15.12
2017-05-11T08:54:37.634Z,15.11
2017-05-11T08:55:39.010Z,15.19
2017-05-11T08:56:40.382Z,15.09
2017-05-11T08:57:41.747Z,15.11
2017-05-11T08:58:43.126Z,15.08
2017-05-11T08:59:44.973Z,15.24
2017-05-11T09:00:46.347Z,15.30
2017-05-11T09:01:47.716Z,15.33
2017-05-11T09:02:49.091Z,15.38
2017-05-11T09:03:51.301Z,15.33
2017-05-11T09:04:52.670Z,15.38
2017-05-11T09:05:54.036Z,15.43
2017-05-11T09:06:55.407Z,15.38
2017-05-11T09:07:56.924Z,15.24
2017-05-11T09:08:58.292Z,15.12
2017-05-11T09:09:59.739Z,15.09
2017-05-11T09:11:01.115Z,15.30
2017-05-11T09:12:02.489Z,15.35
2017-05-11T09:13:03.865Z,15.39
2017-05-11T09:14:05.251Z,15.46
2017-05-11T09:15:06.617Z,15.52
2017-05-11T09:16:07.998Z,15.54
2017-05-11T09:17:09.369Z,15.60
2017-05-11T09:18:10.742Z,15.64
2017-05-11T09:19:12.110Z,15.72
2017-05-11T09:20:13.478Z,15.74
2017-05-11T09:21:14.847Z,15.68
2017-05-11T09:22:16.231Z,15.78
2017-05-11T09:23:17.601Z,15.70
2017-05-11T09:24:18.969Z,15.74
2017-05-11T09:25:20.359Z,15.78
2017-05-11T09:26:21.748Z,15.68
2017-05-11T09:27:23.161Z,15.67
2017-05-11T09:28:24.537Z,15.79
2017-05-11T09:29:25.918Z,15.88
2017-05-11T09:30:27.291Z,16.03
2017-05-11T09:31:28.660Z,16.07
2017-05-11T09:32:30.033Z,16.14
2017-05-11T09:33:31.403Z,16.22
2017-05-11T09:34:32.772Z,16.14
2017-05-11T09:35:34.142Z,16.23
2017-05-11T09:36:35.517Z,16.38
2017-05-11T09:37:37.667Z,16.41
2017-05-11T09:38:39.036Z,16.42
2017-05-11T09:39:41.049Z,16.42
2017-05-11T09:40:42.424Z,16.38
2017-05-11T09:41:43.785Z,16.42
2017-05-11T09:42:45.162Z,16.41
2017-05-11T09:43:46.543Z,16.52
2017-05-11T09:44:47.922Z,16.53
2017-05-11T09:45:49.295Z,16.63
2017-05-11T09:46:50.676Z,16.56
2017-05-11T09:47:52.067Z,16.67
2017-05-11T09:48:53.439Z,16.74
2017-05-11T09:49:54.803Z,16.62
2017-05-11T09:50:56.179Z,16.65
2017-05-11T09:51:57.551Z,16.65
2017-05-11T09:52:58.930Z,16.78
2017-05-11T09:54:00.314Z,16.75
2017-05-11T09:55:01.688Z,16.78
2017-05-11T09:56:03.085Z,16.89
2017-05-11T09:57:04.459Z,16.90
2017-05-11T09:58:05.819Z,16.92
2017-05-11T09:59:07.218Z,16.89
2017-05-11T10:00:08.596Z,16.92
2017-05-11T10:01:09.966Z,16.92
2017-05-11T10:02:11.339Z,16.99
2017-05-11T10:03:12.707Z,17.06
2017-05-11T10:04:14.089Z,17.18
2017-05-11T10:05:15.462Z,17.30
2017-05-11T10:06:16.833Z,17.38
2017-05-11T10:07:18.210Z,17.36
2017-05-11T10:08:19.610Z,17.43
2017-05-11T10:09:21.899Z,17.35
2017-05-11T10:10:23.266Z,17.51
2017-05-11T10:11:24.642Z,17.57
2017-05-11T10:12:26.014Z,17.54
2017-05-11T10:13:27.381Z,17.55
2017-05-11T10:14:28.748Z,17.57
2017-05-11T10:15:30.128Z,17.69
2017-05-11T10:16:31.514Z,17.70
2017-05-11T10:17:32.896Z,17.69
2017-05-11T10:18:34.269Z,17.73
2017-05-11T10:19:35.639Z,17.69
2017-05-11T10:20:37.022Z,17.71
2017-05-11T10:21:38.396Z,17.79
2017-05-11T10:22:39.786Z,17.84
2017-05-11T10:23:41.162Z,17.88
2017-05-11T10:24:42.534Z,17.95
2017-05-11T10:25:44.445Z,18.02
2017-05-11T10:26:45.821Z,18.07
2017-05-11T10:27:47.193Z,18.12
2017-05-11T10:28:48.560Z,18.21
2017-05-11T10:29:49.940Z,18.15
2017-05-11T10:30:51.307Z,18.17
2017-05-11T10:31:52.678Z,18.19
2017-05-11T10:32:54.070Z,18.33
2017-05-11T10:33:55.449Z,18.28
2017-05-11T10:34:56.872Z,18.33
2017-05-11T10:35:58.258Z,18.34
2017-05-11T10:36:59.637Z,18.37
2017-05-11T10:38:01.014Z,18.37
2017-05-11T10:39:02.386Z,18.24
2017-05-11T10:40:03.751Z,18.28
2017-05-11T10:41:05.125Z,18.33
2017-05-11T10:42:06.524Z,18.37
2017-05-11T10:43:07.975Z,18.39
2017-05-11T10:44:09.361Z,18.33
2017-05-11T10:45:10.746Z,18.19
2017-05-11T10:46:12.230Z,18.17
2017-05-11T10:47:13.596Z,18.24
2017-05-11T10:48:14.968Z,18.31
2017-05-11T10:49:16.334Z,18.31
2017-05-11T10:50:17.728Z,18.29
2017-05-11T10:51:19.103Z,18.33
2017-05-11T10:52:20.473Z,18.27
2017-05-11T10:53:21.853Z,18.22
2017-05-11T10:54:23.233Z,18.22
2017-05-11T10:55:24.635Z,18.25
2017-05-11T10:56:26.066Z,18.24
2017-05-11T10:57:27.443Z,18.25
2017-05-11T10:58:29.789Z,18.25
2017-05-11T10:59:31.366Z,18.29
2017-05-11T11:00:32.729Z,18.37
2017-05-11T11:01:34.141Z,18.37
2017-05-11T11:02:35.513Z,18.40
2017-05-11T11:03:36.885Z,18.37
2017-05-11T11:04:38.254Z,18.40
2017-05-11T11:05:39.633Z,18.44
2017-05-11T11:06:41.004Z,18.59
2017-05-11T11:07:42.435Z,18.50
2017-05-11T11:08:44.448Z,18.62
2017-05-11T11:09:45.831Z,18.67
2017-05-11T11:10:47.205Z,18.72
2017-05-11T11:11:48.590Z,18.68
2017-05-11T11:12:49.964Z,18.76
2017-05-11T11:13:51.340Z,18.77
2017-05-11T11:14:52.723Z,18.80
2017-05-11T11:15:54.126Z,18.84
2017-05-11T11:16:55.495Z,18.86
2017-05-11T11:17:56.869Z,18.80
2017-05-11T11:18:58.246Z,18.91
2017-05-11T11:19:59.643Z,19.02
2017-05-11T11:21:01.017Z,18.98
2017-05-11T11:22:02.391Z,18.98
2017-05-11T11:23:03.796Z,18.94
2017-05-11T11:24:05.169Z,19.02
2017-05-11T11:25:06.538Z,19.01
2017-05-11T11:26:07.929Z,19.10
2017-05-11T11:27:09.298Z,19.11
2017-05-11T11:28:10.678Z,19.05
2017-05-11T11:29:12.042Z,19.08
2017-05-11T11:30:13.433Z,18.99
2017-05-11T11:31:14.858Z,19.06
2017-05-11T11:32:16.236Z,19.05
2017-05-11T11:33:17.622Z,19.10
2017-05-11T11:34:19.030Z,19.13
2017-05-11T11:35:21.068Z,19.11
2017-05-11T11:36:22.442Z,18.87
2017-05-11T11:37:23.822Z,19.06
2017-05-11T11:38:26.071Z,19.06
2017-05-11T11:39:27.443Z,19.06
2017-05-11T11:40:28.832Z,19.17
2017-05-11T11:41:30.220Z,19.08
2017-05-11T11:42:31.591Z,19.10
2017-05-11T11:43:32.970Z,19.13
2017-05-11T11:44:34.346Z,19.15
2017-05-11T11:45:35.726Z,19.06
2017-05-11T11:46:37.106Z,19.20
2017-05-11T11:47:38.477Z,19.21
2017-05-11T11:48:39.846Z,19.17
2017-05-11T11:49:41.220Z,19.20
2017-05-11T11:50:42.591Z,19.25
2017-05-11T11:51:43.964Z,19.23
2017-05-11T11:52:45.337Z,19.28
2017-05-11T11:53:46.708Z,19.24
2017-05-11T11:54:48.086Z,19.24
2017-05-11T11:55:49.456Z,19.20
2017-05-11T11:56:50.844Z,19.21
2017-05-11T11:57:52.218Z,19.25
2017-05-11T11:58:53.592Z,19.23
2017-05-11T11:59:54.965Z,19.23
2017-05-11T12:00:56.356Z,19.25
2017-05-11T12:01:57.727Z,19.25
2017-05-11T12:02:59.099Z,19.17
2017-05-11T12:04:00.475Z,19.29
2017-05-11T12:05:01.852Z,19.23
2017-05-11T12:06:03.224Z,19.23
2017-05-11T12:07:04.608Z,19.28
2017-05-11T12:08:05.983Z,19.25
2017-05-11T12:09:07.364Z,19.24
2017-05-11T12:10:08.729Z,19.21
2017-05-11T12:11:10.101Z,19.29
2017-05-11T12:12:11.470Z,19.29
2017-05-11T12:13:12.848Z,19.28
2017-05-11T12:14:14.223Z,19.21
2017-05-11T12:15:15.597Z,19.28
2017-05-11T12:16:16.969Z,19.31
2017-05-11T12:17:18.374Z,19.25
2017-05-11T12:18:19.791Z,19.25
2017-05-11T12:19:21.157Z,19.31
2017-05-11T12:20:22.541Z,19.31
2017-05-11T12:21:23.939Z,19.42
2017-05-11T12:22:25.314Z,19.42
2017-05-11T12:23:26.692Z,19.43
2017-05-11T12:24:28.063Z,19.40
2017-05-11T12:25:29.431Z,19.40
2017-05-11T12:26:30.797Z,19.35
2017-05-11T12:27:32.178Z,19.32
2017-05-11T12:28:33.550Z,19.38
2017-05-11T12:29:34.917Z,19.40
2017-05-11T12:30:36.335Z,19.46
2017-05-11T12:31:37.715Z,19.43
2017-05-11T12:32:39.079Z,19.43
2017-05-11T12:33:40.450Z,19.51
2017-05-11T12:34:42.643Z,19.42
2017-05-11T12:35:44.021Z,19.40
2017-05-11T12:36:45.397Z,19.46
2017-05-11T12:37:46.771Z,19.39
2017-05-11T12:38:48.142Z,19.33
2017-05-11T12:39:49.516Z,19.39
2017-05-11T12:40:50.910Z,19.35
2017-05-11T12:41:52.289Z,19.36
2017-05-11T12:42:53.662Z,19.36
2017-05-11T12:43:55.181Z,19.43
2017-05-11T12:44:56.559Z,19.54
2017-05-11T12:45:58.045Z,19.46
2017-05-11T12:46:59.413Z,19.48
2017-05-11T12:48:00.783Z,19.46
2017-05-11T12:49:02.154Z,19.55
2017-05-11T12:50:03.531Z,19.60
2017-05-11T12:51:04.905Z,19.58
2017-05-11T12:52:06.280Z,19.58
2017-05-11T12:53:07.658Z,19.65
2017-05-11T12:54:09.031Z,19.65
2017-05-11T12:55:10.408Z,19.60
2017-05-11T12:56:11.779Z,19.55
2017-05-11T12:57:13.151Z,19.65
2017-05-11T12:58:14.523Z,19.69
2017-05-11T12:59:15.896Z,19.57
2017-05-11T13:00:17.291Z,19.78
2017-05-11T13:01:18.660Z,19.86
2017-05-11T13:02:20.035Z,19.76
2017-05-11T13:03:21.402Z,19.86
2017-05-11T13:04:22.782Z,19.83
2017-05-11T13:05:24.153Z,19.90
2017-05-11T13:06:25.520Z,19.78
2017-05-11T13:07:26.896Z,19.86
2017-05-11T13:08:28.300Z,19.88
2017-05-11T13:09:29.670Z,19.91
2017-05-11T13:10:31.043Z,20.03
2017-05-11T13:11:32.420Z,20.06
2017-05-11T13:12:33.788Z,20.02
2017-05-11T13:13:35.159Z,19.94
2017-05-11T13:14:36.537Z,20.05
2017-05-11T13:15:37.945Z,20.12
2017-05-11T13:16:39.338Z,20.18
2017-05-11T13:17:40.720Z,20.24
2017-05-11T13:18:42.091Z,20.30